createdAt,value
2019-04-25T00:02:06.612Z,2.90
2019-04-25T00:04:37.004Z,2.90
2019-04-25T00:07:06.768Z,3.27
2019-04-25T00:09:51.629Z,2.63
2019-04-25T00:12:22.315Z,3.40
2019-04-25T00:14:52.061Z,2.53
2019-04-25T00:23:34.166Z,3.00
2019-04-25T00:26:21.141Z,2.90
2019-04-25T00:28:52.380Z,3.00
2019-04-25T00:31:22.478Z,4.23
2019-04-25T00:33:53.307Z,3.37
2019-04-25T00:36:23.036Z,2.80
2019-04-25T00:38:53.315Z,3.33
2019-04-25T00:41:23.011Z,3.13
2019-04-25T00:43:52.702Z,3.90
2019-04-25T00:46:22.595Z,3.40
2019-04-25T00:48:52.724Z,3.70
2019-04-25T00:51:22.468Z,4.07
2019-04-25T00:53:54.684Z,3.97
2019-04-25T00:56:23.629Z,4.00
2019-04-25T00:59:22.096Z,3.40
2019-04-25T01:02:11.474Z,4.17
2019-04-25T01:04:41.959Z,4.70
2019-04-25T01:07:12.682Z,4.43
2019-04-25T01:09:42.502Z,4.57
2019-04-25T01:12:12.952Z,4.17
2019-04-25T01:14:42.688Z,3.40
2019-04-25T01:17:12.443Z,4.60
2019-04-25T01:19:42.261Z,4.47
2019-04-25T01:22:14.392Z,4.20
2019-04-25T01:24:45.585Z,4.83
2019-04-25T01:27:15.526Z,4.73
2019-04-25T01:29:46.314Z,5.10
2019-04-25T01:32:19.147Z,4.23
2019-04-25T01:35:00.093Z,4.93
2019-04-25T01:37:57.612Z,4.27
2019-04-25T01:41:01.154Z,4.67
2019-04-25T01:43:36.646Z,4.20
2019-04-25T01:46:06.435Z,3.40
2019-04-25T01:48:36.147Z,3.93
2019-04-25T01:51:05.906Z,3.57
2019-04-25T01:53:35.729Z,4.03
2019-04-25T01:56:07.747Z,5.53
2019-04-25T01:58:36.935Z,5.07
2019-04-25T02:01:06.751Z,3.63
2019-04-25T02:03:36.611Z,4.73
2019-04-25T02:06:06.373Z,5.47
2019-04-25T02:08:36.158Z,5.73
2019-04-25T02:11:24.880Z,5.20
2019-04-25T02:13:54.973Z,4.87
2019-04-25T02:16:25.505Z,5.77
2019-04-25T02:22:27.157Z,5.10
2019-04-25T02:24:57.104Z,5.90
2019-04-25T02:27:27.015Z,6.27
2019-04-25T02:29:57.262Z,7.60
2019-04-25T02:32:27.066Z,7.03
2019-04-25T02:35:00.538Z,7.40
2019-04-25T02:37:28.193Z,7.13
2019-04-25T02:40:00.021Z,8.63
2019-04-25T02:42:29.324Z,6.20
2019-04-25T02:45:08.854Z,7.60
2019-04-25T02:47:57.753Z,6.63
2019-04-25T02:50:45.895Z,6.97
2019-04-25T02:53:36.604Z,5.87
2019-04-25T02:56:08.040Z,4.63
2019-04-25T02:58:35.290Z,5.87
2019-04-25T03:01:16.205Z,6.43
2019-04-25T03:03:38.746Z,5.57
2019-04-25T03:06:09.668Z,7.17
2019-04-25T03:08:39.675Z,6.43
2019-04-25T03:11:09.540Z,4.77
2019-04-25T03:13:39.515Z,5.50
2019-04-25T03:16:11.007Z,4.77
2019-04-25T03:19:14.956Z,5.33
2019-04-25T03:21:45.826Z,7.07
2019-04-25T03:24:16.860Z,7.17
2019-04-25T03:26:46.766Z,5.43
2019-04-25T03:29:16.605Z,6.80
2019-04-25T03:31:46.374Z,7.70
2019-04-25T03:34:20.255Z,5.57
2019-04-25T03:36:47.415Z,7.50
2019-04-25T03:39:17.211Z,8.13
2019-04-25T03:41:47.179Z,6.00
2019-04-25T03:44:16.942Z,7.80
2019-04-25T03:46:46.681Z,9.30
2019-04-25T03:49:16.498Z,7.97
2019-04-25T03:51:46.324Z,7.83
2019-04-25T03:54:16.047Z,7.03
2019-04-25T03:56:53.600Z,7.87
2019-04-25T03:59:17.534Z,9.03
2019-04-25T04:01:47.232Z,8.27
2019-04-25T04:04:17.076Z,8.37
2019-04-25T04:06:46.833Z,10.60
2019-04-25T04:09:16.539Z,10.03
2019-04-25T04:11:46.447Z,9.43
2019-04-25T04:14:16.121Z,9.67
2019-04-25T04:17:06.379Z,7.87
2019-04-25T04:20:26.761Z,9.70
2019-04-25T04:23:11.273Z,10.53
2019-04-25T04:25:41.177Z,10.43
2019-04-25T04:28:11.822Z,9.23
2019-04-25T04:30:41.612Z,10.90
2019-04-25T04:37:38.767Z,11.33
2019-04-25T04:40:09.573Z,12.30
2019-04-25T04:42:39.560Z,12.43
2019-04-25T04:45:10.205Z,10.37
2019-04-25T04:47:40.001Z,11.87
2019-04-25T04:50:10.587Z,12.40
2019-04-25T04:52:40.306Z,9.83
2019-04-25T04:55:11.610Z,11.97
2019-04-25T04:57:45.732Z,12.77
2019-04-25T05:00:15.626Z,13.87
2019-04-25T05:02:57.891Z,13.07
2019-04-25T05:05:55.681Z,15.03
2019-04-25T05:08:31.540Z,10.83
2019-04-25T05:11:01.330Z,13.43
2019-04-25T05:13:31.081Z,13.23
2019-04-25T05:16:00.862Z,12.67
2019-04-25T05:18:37.073Z,13.23
2019-04-25T05:21:02.155Z,9.40
2019-04-25T05:23:31.895Z,12.00
2019-04-25T05:26:01.682Z,11.53
2019-04-25T05:28:31.402Z,11.67
2019-04-25T05:31:29.156Z,7.80
2019-04-25T05:33:59.038Z,10.17
2019-04-25T05:36:37.924Z,8.33
2019-04-25T05:39:11.034Z,9.20
2019-04-25T05:41:58.502Z,7.57
2019-04-25T05:44:28.298Z,7.63
2019-04-25T05:46:58.104Z,8.37
2019-04-25T05:49:27.851Z,9.87
2019-04-25T05:51:57.599Z,7.80
2019-04-25T05:54:27.346Z,7.10
2019-04-25T05:56:57.125Z,7.13
2019-04-25T05:59:26.980Z,6.63
2019-04-25T06:01:56.641Z,5.77
2019-04-25T06:04:27.313Z,6.97
2019-04-25T06:06:56.996Z,5.27
2019-04-25T06:09:48.800Z,5.93
2019-04-25T06:12:28.780Z,5.07
2019-04-25T06:14:58.717Z,6.63
2019-04-25T06:17:37.000Z,5.67
2019-04-25T06:20:08.102Z,5.43
2019-04-25T06:22:58.348Z,4.80
2019-04-25T06:25:32.703Z,5.70
2019-04-25T06:28:01.440Z,4.90
2019-04-25T06:30:31.688Z,4.47
2019-04-25T06:33:03.208Z,4.43
2019-04-25T06:35:35.513Z,3.90
2019-04-25T06:38:04.967Z,4.73
2019-04-25T06:40:34.753Z,3.67
2019-04-25T06:43:04.586Z,5.57
2019-04-25T06:45:51.832Z,3.73
2019-04-25T06:48:27.673Z,5.63
2019-04-25T06:50:57.391Z,3.40
2019-04-25T06:53:27.039Z,2.93
2019-04-25T06:55:56.804Z,4.27
2019-04-25T06:58:27.547Z,3.70
2019-04-25T07:01:00.840Z,4.60
2019-04-25T07:03:29.466Z,4.07
2019-04-25T07:05:59.199Z,3.97
2019-04-25T07:08:29.139Z,3.30
2019-04-25T07:10:58.909Z,3.47
2019-04-25T07:13:28.595Z,3.67
2019-04-25T07:15:58.323Z,4.33
2019-04-25T07:18:31.585Z,3.97
2019-04-25T07:20:59.397Z,3.83
2019-04-25T07:23:30.045Z,3.80
2019-04-25T07:26:06.257Z,3.70
2019-04-25T07:28:47.830Z,2.80
2019-04-25T07:31:34.514Z,3.00
2019-04-25T07:34:17.825Z,3.73
2019-04-25T07:36:47.603Z,4.00
2019-04-25T07:39:17.407Z,3.87
2019-04-25T07:41:47.309Z,3.83
2019-04-25T07:44:17.265Z,3.40
2019-04-25T07:46:47.037Z,4.60
2019-04-25T07:49:16.814Z,3.67
2019-04-25T07:51:46.514Z,3.53
2019-04-25T07:54:16.155Z,3.97
2019-04-25T07:56:45.838Z,3.37
2019-04-25T07:59:15.471Z,3.27
2019-04-25T08:01:45.184Z,2.60
2019-04-25T08:07:58.662Z,3.30
2019-04-25T08:10:30.434Z,3.20
2019-04-25T08:13:00.149Z,3.00
2019-04-25T08:15:46.044Z,3.33
2019-04-25T08:18:15.767Z,3.17
2019-04-25T08:20:46.379Z,3.20
2019-04-25T08:23:16.349Z,3.53
2019-04-25T08:25:46.127Z,3.10
2019-04-25T08:28:15.903Z,3.67
2019-04-25T08:30:45.569Z,3.87
2019-04-25T08:33:15.245Z,3.37
2019-04-25T08:36:03.359Z,3.47
2019-04-25T08:38:16.399Z,3.40
2019-04-25T08:40:46.135Z,3.60
2019-04-25T08:43:15.791Z,3.23
2019-04-25T08:45:45.445Z,3.50
2019-04-25T08:48:15.401Z,2.77
2019-04-25T08:51:04.066Z,3.47
2019-04-25T08:53:41.057Z,3.50
2019-04-25T08:56:17.883Z,2.60
2019-04-25T08:59:09.639Z,3.77
2019-04-25T09:02:00.404Z,2.80
2019-04-25T09:04:44.675Z,3.13
2019-04-25T09:07:47.878Z,3.17
2019-04-25T09:10:36.844Z,3.17
2019-04-25T09:13:05.627Z,3.47
2019-04-25T09:15:36.627Z,3.40
2019-04-25T09:18:06.706Z,4.00
2019-04-25T09:20:39.609Z,3.27
2019-04-25T09:23:07.791Z,3.67
2019-04-25T09:25:37.420Z,3.60
2019-04-25T09:28:09.207Z,4.57
2019-04-25T09:30:38.897Z,3.73
2019-04-25T09:33:08.645Z,3.47
2019-04-25T09:35:38.364Z,4.03
2019-04-25T09:38:08.036Z,3.77
2019-04-25T09:40:37.686Z,3.30
2019-04-25T09:43:07.485Z,3.83
2019-04-25T09:45:43.890Z,3.93
2019-04-25T09:48:36.223Z,3.17
2019-04-25T09:51:13.777Z,3.80
2019-04-25T09:53:50.908Z,3.40
2019-04-25T09:56:29.674Z,3.43
2019-04-25T09:59:27.371Z,3.93
2019-04-25T10:01:52.776Z,3.83
2019-04-25T10:04:23.078Z,3.40
2019-04-25T10:06:53.483Z,3.13
2019-04-25T10:09:23.801Z,3.73
2019-04-25T10:11:54.655Z,2.90
2019-04-25T10:14:50.593Z,3.60
2019-04-25T10:17:20.312Z,3.63
2019-04-25T10:20:02.044Z,3.20
2019-04-25T10:22:31.851Z,3.87
2019-04-25T10:25:03.277Z,3.43
2019-04-25T10:27:33.114Z,3.43
2019-04-25T10:30:15.986Z,4.20
2019-04-25T10:32:34.335Z,3.60
2019-04-25T10:35:04.132Z,3.60
2019-04-25T10:37:35.265Z,3.43
2019-04-25T10:40:23.435Z,2.70
2019-04-25T10:42:53.793Z,3.20
2019-04-25T10:45:25.942Z,3.60
2019-04-25T10:47:56.457Z,3.67
2019-04-25T10:50:26.713Z,3.43
2019-04-25T10:52:56.462Z,3.43
2019-04-25T10:55:26.290Z,3.40
2019-04-25T10:57:59.005Z,3.80
2019-04-25T11:00:40.771Z,3.53
2019-04-25T11:03:30.687Z,4.13
2019-04-25T11:06:03.808Z,2.77
2019-04-25T11:08:34.194Z,2.90
2019-04-25T11:11:04.522Z,3.40
2019-04-25T11:13:35.432Z,3.87
2019-04-25T11:16:06.744Z,3.50
2019-04-25T11:18:36.503Z,3.33
2019-04-25T11:21:06.314Z,3.87
2019-04-25T11:23:36.049Z,3.83
2019-04-25T11:26:05.856Z,4.17
2019-04-25T11:28:35.738Z,2.97
2019-04-25T11:31:07.226Z,3.53
2019-04-25T11:33:37.061Z,3.90
2019-04-25T11:36:06.749Z,3.43
2019-04-25T11:39:01.442Z,4.00
2019-04-25T11:41:31.716Z,3.40
2019-04-25T11:44:03.307Z,3.70
2019-04-25T11:46:33.411Z,3.20
2019-04-25T11:49:04.489Z,3.33
2019-04-25T11:51:34.399Z,4.50
2019-04-25T11:54:04.179Z,3.43
2019-04-25T11:56:34.278Z,3.53
2019-04-25T11:59:04.536Z,4.07
2019-04-25T12:01:34.389Z,4.03
2019-04-25T12:04:04.382Z,4.23
2019-04-25T12:06:34.116Z,3.77
2019-04-25T12:09:04.881Z,3.33
2019-04-25T12:11:34.605Z,3.83
2019-04-25T12:14:04.393Z,4.17
2019-04-25T12:16:34.168Z,3.90
2019-04-25T12:19:04.796Z,3.47
2019-04-25T12:21:34.703Z,4.40
2019-04-25T12:24:05.804Z,4.13
2019-04-25T12:26:36.026Z,4.30
2019-04-25T12:29:05.837Z,4.10
2019-04-25T12:31:35.676Z,3.97
2019-04-25T12:34:05.535Z,5.03
2019-04-25T12:36:35.247Z,3.63
2019-04-25T12:39:07.149Z,4.23
2019-04-25T12:41:36.965Z,4.60
2019-04-25T12:44:24.472Z,4.43
2019-04-25T12:46:55.632Z,5.10
2019-04-25T12:49:25.738Z,3.63
2019-04-25T12:51:55.519Z,3.67
2019-04-25T12:54:25.341Z,3.87
2019-04-25T12:56:55.073Z,3.97
2019-04-25T12:59:24.809Z,4.60
2019-04-25T13:01:55.666Z,4.00
2019-04-25T13:04:26.417Z,4.37
2019-04-25T13:06:56.123Z,3.73
2019-04-25T13:09:25.932Z,4.37
2019-04-25T13:11:55.754Z,3.87
2019-04-25T13:14:25.559Z,3.20
2019-04-25T13:16:55.323Z,3.60
2019-04-25T13:19:26.501Z,3.73
2019-04-25T13:21:57.086Z,3.50
2019-04-25T13:24:27.581Z,3.63
2019-04-25T13:27:06.503Z,3.53
2019-04-25T13:29:58.825Z,3.63
2019-04-25T13:32:42.016Z,3.00
2019-04-25T13:35:18.446Z,3.13
2019-04-25T13:37:48.235Z,3.30
2019-04-25T13:40:18.516Z,3.47
2019-04-25T13:42:48.337Z,3.07
2019-04-25T13:45:18.572Z,2.50
2019-04-25T13:47:48.368Z,3.03
2019-04-25T13:50:18.027Z,3.13
2019-04-25T13:52:47.936Z,2.50
2019-04-25T13:55:17.828Z,3.17
2019-04-25T13:57:47.549Z,2.90
2019-04-25T14:00:18.497Z,3.17
2019-04-25T14:02:48.852Z,2.73
2019-04-25T14:05:21.191Z,2.97
2019-04-25T14:07:50.929Z,3.00
2019-04-25T14:10:21.456Z,3.00
2019-04-25T14:12:51.133Z,3.20
2019-04-25T14:15:25.122Z,3.20
2019-04-25T14:18:11.745Z,3.70
2019-04-25T14:20:45.197Z,3.33
2019-04-25T14:23:15.377Z,3.20
2019-04-25T14:25:45.225Z,2.23
2019-04-25T14:28:14.880Z,3.27
2019-04-25T14:30:44.657Z,3.23
2019-04-25T14:33:14.399Z,2.00
2019-04-25T14:35:44.185Z,2.93
2019-04-25T14:38:13.969Z,2.77
2019-04-25T14:40:43.779Z,2.13
2019-04-25T14:43:13.547Z,2.73
2019-04-25T14:45:45.107Z,2.93
2019-04-25T14:48:14.930Z,2.67
2019-04-25T14:50:44.720Z,3.00
2019-04-25T14:53:14.410Z,2.33
2019-04-25T14:56:07.410Z,2.57
2019-04-25T14:58:38.025Z,2.67
2019-04-25T15:01:08.142Z,3.40
2019-04-25T15:03:37.867Z,2.80
2019-04-25T15:06:07.645Z,2.83
2019-04-25T15:08:37.329Z,2.80
2019-04-25T15:11:07.274Z,2.53
2019-04-25T15:13:37.028Z,3.07
2019-04-25T15:16:06.894Z,2.70
2019-04-25T15:18:46.097Z,2.80
2019-04-25T15:21:07.974Z,2.60
2019-04-25T15:23:37.650Z,2.93
2019-04-25T15:26:07.394Z,3.33
2019-04-25T15:28:37.057Z,2.90
2019-04-25T15:31:06.819Z,2.97
2019-04-25T15:33:36.625Z,2.77
2019-04-25T15:36:24.754Z,3.53
2019-04-25T15:39:16.243Z,2.97
2019-04-25T15:41:57.847Z,3.87
2019-04-25T15:44:46.491Z,3.57
2019-04-25T15:47:18.622Z,4.13
2019-04-25T15:49:48.264Z,3.77
2019-04-25T15:52:18.073Z,3.97
2019-04-25T15:54:47.788Z,3.80
2019-04-25T15:57:23.553Z,3.87
2019-04-25T16:00:01.323Z,3.70
2019-04-25T16:02:31.124Z,4.23
2019-04-25T16:05:02.362Z,4.57
2019-04-25T16:07:32.112Z,3.13
2019-04-25T16:10:03.985Z,3.37
2019-04-25T16:12:37.359Z,3.83
2019-04-25T16:15:10.595Z,3.90
2019-04-25T16:17:42.554Z,4.03
2019-04-25T16:20:21.956Z,4.77
2019-04-25T16:22:47.167Z,4.30
2019-04-25T16:25:17.116Z,3.40
2019-04-25T16:27:46.868Z,4.43
2019-04-25T16:30:17.412Z,4.07
2019-04-25T16:32:47.546Z,3.63
2019-04-25T16:35:17.366Z,3.90
2019-04-25T16:37:50.068Z,3.23
2019-04-25T16:40:19.870Z,4.40
2019-04-25T16:42:50.120Z,3.97
2019-04-25T16:45:20.362Z,3.60
2019-04-25T16:47:50.187Z,3.20
2019-04-25T16:50:21.413Z,4.07
2019-04-25T16:52:51.169Z,3.97
2019-04-25T16:55:21.041Z,3.37
2019-04-25T16:57:50.885Z,3.07
2019-04-25T17:00:52.743Z,3.13
2019-04-25T17:03:24.471Z,2.60
2019-04-25T17:05:54.293Z,3.63
2019-04-25T17:08:25.133Z,4.33
2019-04-25T17:10:54.942Z,3.40
2019-04-25T17:13:25.572Z,3.13
2019-04-25T17:16:12.222Z,3.27
2019-04-25T17:18:52.116Z,3.40
2019-04-25T17:21:21.874Z,3.10
2019-04-25T17:23:51.567Z,2.90
2019-04-25T17:26:21.841Z,3.70
2019-04-25T17:28:53.227Z,3.73
2019-04-25T17:31:31.399Z,3.30
2019-04-25T17:34:09.400Z,3.50
2019-04-25T17:36:46.785Z,3.80
2019-04-25T17:39:36.161Z,3.67
2019-04-25T17:42:05.917Z,4.17
2019-04-25T17:44:36.342Z,3.33
2019-04-25T17:47:06.826Z,3.80
2019-04-25T17:49:36.873Z,3.63
2019-04-25T17:52:06.681Z,3.10
2019-04-25T17:54:36.681Z,3.60
2019-04-25T17:57:06.619Z,3.30
2019-04-25T17:59:36.889Z,2.80
2019-04-25T18:02:06.845Z,3.27
2019-04-25T18:04:36.716Z,3.53
2019-04-25T18:07:06.723Z,3.37
2019-04-25T18:09:36.832Z,3.17
2019-04-25T18:12:06.652Z,2.97
2019-04-25T18:14:36.701Z,3.43
2019-04-25T18:17:06.800Z,3.20
2019-04-25T18:26:28.189Z,3.27
2019-04-25T18:29:02.480Z,3.37
2019-04-25T18:31:32.550Z,3.57
2019-04-25T18:34:05.359Z,3.17
2019-04-25T18:36:50.296Z,2.60
2019-04-25T18:39:48.532Z,2.77
2019-04-25T18:59:59.323Z,1.80
2019-04-25T19:03:00.330Z,2.73
2019-04-25T19:05:41.066Z,3.43
2019-04-25T19:08:16.066Z,2.53
2019-04-25T19:10:49.632Z,2.90
2019-04-25T19:13:19.517Z,3.83
2019-04-25T19:15:49.248Z,3.87
2019-04-25T19:18:19.108Z,4.50
2019-04-25T19:20:48.888Z,4.60
2019-04-25T19:23:18.615Z,3.43
2019-04-25T19:25:48.435Z,4.43
2019-04-25T19:28:18.283Z,3.80
2019-04-25T19:30:48.148Z,4.17
2019-04-25T19:33:18.479Z,3.73
2019-04-25T19:35:48.277Z,5.07
2019-04-25T19:38:18.195Z,3.60
2019-04-25T19:41:13.043Z,3.80
2019-04-25T19:43:55.222Z,5.73
2019-04-25T19:46:38.976Z,4.90
2019-04-25T19:49:09.012Z,4.10
2019-04-25T19:51:38.821Z,4.00
2019-04-25T19:54:08.633Z,6.10
2019-04-25T19:56:38.466Z,4.23
2019-04-25T19:59:08.299Z,3.37
2019-04-25T20:01:38.244Z,3.77
2019-04-25T20:04:30.091Z,5.17
2019-04-25T20:07:23.459Z,5.00
2019-04-25T20:10:08.479Z,4.10
2019-04-25T20:12:45.307Z,4.10
2019-04-25T20:15:15.521Z,3.57
2019-04-25T20:17:45.926Z,3.90
2019-04-25T20:20:15.910Z,5.07
2019-04-25T20:22:46.169Z,4.83
2019-04-25T20:25:16.182Z,3.63
2019-04-25T20:27:46.710Z,3.73
2019-04-25T20:30:16.842Z,3.97
2019-04-25T20:32:47.343Z,5.50
2019-04-25T20:35:17.157Z,3.70
2019-04-25T20:37:47.457Z,3.57
2019-04-25T20:40:17.556Z,5.40
2019-04-25T20:42:48.077Z,3.47
2019-04-25T20:45:18.127Z,3.37
2019-04-25T20:47:48.047Z,4.00
2019-04-25T20:50:17.848Z,5.30
2019-04-25T20:52:48.611Z,3.60
2019-04-25T20:55:18.631Z,3.43
2019-04-25T20:57:49.357Z,3.93
2019-04-25T21:00:40.414Z,3.57
2019-04-25T21:03:10.299Z,4.47
2019-04-25T21:05:40.370Z,3.37
2019-04-25T21:08:10.184Z,4.37
2019-04-25T21:10:40.057Z,4.50
2019-04-25T21:13:13.917Z,4.20
2019-04-25T21:16:02.692Z,4.33
2019-04-25T21:18:39.539Z,4.37
2019-04-25T21:21:09.351Z,4.50
2019-04-25T21:23:39.032Z,3.77
2019-04-25T21:26:08.812Z,4.10
2019-04-25T21:28:38.699Z,4.00
2019-04-25T21:31:08.589Z,4.67
2019-04-25T21:33:38.395Z,4.07
2019-04-25T21:36:08.233Z,4.83
2019-04-25T21:38:38.229Z,4.60
2019-04-25T21:41:32.945Z,5.07
2019-04-25T21:44:05.097Z,4.63
2019-04-25T21:46:35.049Z,4.30
2019-04-25T21:49:05.160Z,4.70
2019-04-25T21:51:34.857Z,6.03
2019-04-25T21:54:04.941Z,4.47
2019-04-25T21:56:35.035Z,5.03
2019-04-25T21:59:04.762Z,4.87
2019-04-25T22:01:38.806Z,5.63
2019-04-25T22:04:08.865Z,5.40
2019-04-25T22:06:38.868Z,5.63
2019-04-25T22:09:15.814Z,5.57
2019-04-25T22:11:46.021Z,5.67
2019-04-25T22:14:16.351Z,5.43
2019-04-25T22:16:46.681Z,7.10
2019-04-25T22:19:17.018Z,5.70
2019-04-25T22:21:47.258Z,5.87
2019-04-25T22:24:17.153Z,5.93
2019-04-25T22:26:49.598Z,5.13
2019-04-25T22:29:19.412Z,5.17
2019-04-25T22:32:05.563Z,6.77
2019-04-25T22:34:52.237Z,6.50
2019-04-25T22:37:15.248Z,4.30
2019-04-25T22:39:45.376Z,6.30
2019-04-25T22:42:15.106Z,6.57
2019-04-25T22:44:44.993Z,4.97
2019-04-25T22:47:17.523Z,6.47
2019-04-25T22:49:46.194Z,6.27
2019-04-25T22:52:16.249Z,6.27
2019-04-25T22:54:46.123Z,7.17
2019-04-25T22:57:16.138Z,6.00
2019-04-25T22:59:46.320Z,6.70
2019-04-25T23:02:28.883Z,5.30
2019-04-25T23:05:12.100Z,5.70
2019-04-25T23:07:40.305Z,5.33
2019-04-25T23:10:10.320Z,6.53
2019-04-25T23:12:40.272Z,6.97
2019-04-25T23:15:11.004Z,7.70
2019-04-25T23:17:40.813Z,6.33
2019-04-25T23:20:11.702Z,8.90
2019-04-25T23:22:41.767Z,7.63
2019-04-25T23:25:14.134Z,8.83
2019-04-25T23:28:11.880Z,8.23
2019-04-25T23:30:59.422Z,9.57
2019-04-25T23:33:29.304Z,7.40
2019-04-25T23:35:59.469Z,8.67
2019-04-25T23:38:29.409Z,10.27
2019-04-25T23:40:59.290Z,9.40
2019-04-25T23:43:29.195Z,8.80
2019-04-25T23:45:59.040Z,8.77
2019-04-25T23:48:29.089Z,9.67
2019-04-25T23:50:58.833Z,10.13
2019-04-25T23:53:28.815Z,11.80
2019-04-25T23:55:58.639Z,10.37
2019-04-25T23:58:28.485Z,9.83
